createdAt,value
2023-04-01T00:00:16.618Z,23.64
2023-04-01T00:01:16.736Z,23.64
2023-04-01T00:02:16.741Z,23.64
2023-04-01T00:03:17.009Z,23.64
2023-04-01T00:04:16.935Z,23.63
2023-04-01T00:05:16.860Z,23.64
2023-04-01T00:06:16.911Z,23.64
2023-04-01T00:07:16.934Z,23.64
2023-04-01T00:08:16.992Z,23.63
2023-04-01T00:09:17.051Z,23.63
2023-04-01T00:10:17.067Z,23.63
2023-04-01T00:11:17.106Z,23.63
2023-04-01T00:12:17.103Z,23.63
2023-04-01T00:13:17.191Z,23.62
2023-04-01T00:14:17.321Z,23.63
2023-04-01T00:15:17.305Z,23.63
2023-04-01T00:16:22.310Z,23.62
2023-04-01T00:17:18.313Z,23.62
2023-04-01T00:18:17.318Z,23.62
2023-04-01T00:19:17.316Z,23.62
2023-04-01T00:20:17.322Z,23.62
2023-04-01T00:21:17.272Z,23.62
2023-04-01T00:22:17.285Z,23.62
2023-04-01T00:23:17.295Z,23.61
2023-04-01T00:24:17.273Z,23.61
2023-04-01T00:25:17.294Z,23.61
2023-04-01T00:26:17.264Z,23.62
2023-04-01T00:27:17.311Z,23.61
2023-04-01T00:28:17.380Z,23.61
2023-04-01T00:29:17.438Z,23.61
2023-04-01T00:30:17.447Z,23.61
2023-04-01T00:31:17.551Z,23.61
2023-04-01T00:32:17.554Z,23.61
2023-04-01T00:33:17.632Z,23.60
2023-04-01T00:34:17.623Z,23.61
2023-04-01T00:35:17.678Z,23.60
2023-04-01T00:36:17.807Z,23.61
2023-04-01T00:37:17.748Z,23.61
2023-04-01T00:38:17.885Z,23.61
2023-04-01T00:39:17.898Z,23.60
2023-04-01T00:40:17.880Z,23.60
2023-04-01T00:41:18.039Z,23.60
2023-04-01T00:42:18.001Z,23.60
2023-04-01T00:43:18.055Z,23.59
2023-04-01T00:44:18.113Z,23.59
2023-04-01T00:45:18.152Z,23.60
2023-04-01T00:46:18.173Z,23.59
2023-04-01T00:47:18.222Z,23.59
2023-04-01T00:48:18.294Z,23.59
2023-04-01T00:49:18.281Z,23.59
2023-04-01T00:50:18.345Z,23.59
2023-04-01T00:51:18.431Z,23.58
2023-04-01T00:52:18.450Z,23.58
2023-04-01T00:53:18.508Z,23.59
2023-04-01T00:54:18.535Z,23.58
2023-04-01T00:55:18.597Z,23.58
2023-04-01T00:56:18.634Z,23.58
2023-04-01T00:57:18.726Z,23.57
2023-04-01T00:58:18.764Z,23.58
2023-04-01T00:59:18.830Z,23.58
2023-04-01T01:00:18.834Z,23.57
2023-04-01T01:01:18.965Z,23.58
2023-04-01T01:02:19.003Z,23.58
2023-04-01T01:03:19.016Z,23.57
2023-04-01T01:04:19.012Z,23.57
2023-04-01T01:05:19.084Z,23.58
2023-04-01T01:06:19.122Z,23.58
2023-04-01T01:07:19.233Z,23.57
2023-04-01T01:08:19.176Z,23.57
2023-04-01T01:09:19.283Z,23.57
2023-04-01T01:10:19.315Z,23.57
2023-04-01T01:11:19.644Z,23.57
2023-04-01T01:12:19.467Z,23.57
2023-04-01T01:13:19.483Z,23.57
2023-04-01T01:14:19.541Z,23.56
2023-04-01T01:15:19.594Z,23.56
2023-04-01T01:16:19.686Z,23.56
2023-04-01T01:17:19.777Z,23.56
2023-04-01T01:18:19.713Z,23.56
2023-04-01T01:19:19.798Z,23.55
2023-04-01T01:20:26.153Z,23.55
2023-04-01T01:21:20.824Z,23.55
2023-04-01T01:22:19.819Z,23.55
2023-04-01T01:23:19.803Z,23.55
2023-04-01T01:24:19.761Z,23.55
2023-04-01T01:25:20.075Z,23.55
2023-04-01T01:26:19.777Z,23.55
2023-04-01T01:27:19.784Z,23.55
2023-04-01T01:28:19.899Z,23.55
2023-04-01T01:29:19.716Z,23.54
2023-04-01T01:30:19.811Z,23.54
2023-04-01T01:31:19.879Z,23.55
2023-04-01T01:32:19.932Z,23.55
2023-04-01T01:33:19.986Z,23.55
2023-04-01T01:34:19.993Z,23.54
2023-04-01T01:35:20.045Z,23.54
2023-04-01T01:36:20.059Z,23.55
2023-04-01T01:37:20.112Z,23.54
2023-04-01T01:38:20.193Z,23.54
2023-04-01T01:39:20.230Z,23.53
2023-04-01T01:40:20.278Z,23.54
2023-04-01T01:41:20.310Z,23.53
2023-04-01T01:42:20.379Z,23.53
2023-04-01T01:43:20.450Z,23.53
2023-04-01T01:44:20.502Z,23.53
2023-04-01T01:45:20.574Z,23.53
2023-04-01T01:46:20.621Z,23.53
2023-04-01T01:47:20.687Z,23.53
2023-04-01T01:48:20.693Z,23.52
2023-04-01T01:49:20.754Z,23.52
2023-04-01T01:50:20.807Z,23.52
2023-04-01T01:51:20.860Z,23.52
2023-04-01T01:52:20.912Z,23.52
2023-04-01T01:53:20.972Z,23.52
2023-04-01T01:54:21.045Z,23.51
2023-04-01T01:55:21.152Z,23.52
2023-04-01T01:56:21.130Z,23.51
2023-04-01T01:57:21.195Z,23.51
2023-04-01T01:58:21.281Z,23.52
2023-04-01T01:59:21.285Z,23.51
2023-04-01T02:00:21.316Z,23.52
2023-04-01T02:01:21.449Z,23.51
2023-04-01T02:02:21.455Z,23.51
2023-04-01T02:03:21.496Z,23.51
2023-04-01T02:04:21.584Z,23.51
2023-04-01T02:05:21.594Z,23.51
2023-04-01T02:06:21.677Z,23.51
2023-04-01T02:07:21.714Z,23.50
2023-04-01T02:08:21.799Z,23.51
2023-04-01T02:09:21.846Z,23.50
2023-04-01T02:10:21.858Z,23.51
2023-04-01T02:11:21.910Z,23.50
2023-04-01T02:12:21.955Z,23.50
2023-04-01T02:13:22.002Z,23.49
2023-04-01T02:14:22.070Z,23.50
2023-04-01T02:15:22.081Z,23.50
2023-04-01T02:16:22.223Z,23.50
2023-04-01T02:17:22.208Z,23.50
2023-04-01T02:18:22.242Z,23.49
2023-04-01T02:19:22.322Z,23.50
2023-04-01T02:20:22.346Z,23.50
2023-04-01T02:21:22.441Z,23.50
2023-04-01T02:22:22.527Z,23.49
2023-04-01T02:23:22.506Z,23.49
2023-04-01T02:24:22.603Z,23.49
2023-04-01T02:25:22.677Z,23.49
2023-04-01T02:26:22.691Z,23.49
2023-04-01T02:27:22.755Z,23.49
2023-04-01T02:28:22.808Z,23.49
2023-04-01T02:29:22.863Z,23.49
2023-04-01T02:30:22.917Z,23.48
2023-04-01T02:31:22.984Z,23.49
2023-04-01T02:32:23.001Z,23.48
2023-04-01T02:33:23.026Z,23.49
2023-04-01T02:34:23.089Z,23.48
2023-04-01T02:35:23.134Z,23.48
2023-04-01T02:36:23.250Z,23.48
2023-04-01T02:37:23.251Z,23.48
2023-04-01T02:38:23.330Z,23.48
2023-04-01T02:39:23.359Z,23.48
2023-04-01T02:40:23.409Z,23.48
2023-04-01T02:41:23.485Z,23.48
2023-04-01T02:42:23.512Z,23.47
2023-04-01T02:43:23.584Z,23.47
2023-04-01T02:44:23.638Z,23.48
2023-04-01T02:45:23.663Z,23.47
2023-04-01T02:46:23.845Z,23.47
2023-04-01T02:47:23.847Z,23.47
2023-04-01T02:48:23.841Z,23.47
2023-04-01T02:49:23.961Z,23.47
2023-04-01T02:50:23.953Z,23.47
2023-04-01T02:51:23.999Z,23.47
2023-04-01T02:52:24.076Z,23.47
2023-04-01T02:53:24.157Z,23.46
2023-04-01T02:54:24.188Z,23.47
2023-04-01T02:55:24.235Z,23.46
2023-04-01T02:56:24.276Z,23.46
2023-04-01T02:57:24.444Z,23.46
2023-04-01T02:58:24.375Z,23.45
2023-04-01T02:59:24.431Z,23.46
2023-04-01T03:00:24.515Z,23.46
2023-04-01T03:01:24.617Z,23.45
2023-04-01T03:02:24.751Z,23.46
2023-04-01T03:03:24.680Z,23.45
2023-04-01T03:04:24.726Z,23.45
2023-04-01T03:05:24.768Z,23.46
2023-04-01T03:06:24.809Z,23.45
2023-04-01T03:07:24.973Z,23.45
2023-04-01T03:08:24.930Z,23.45
2023-04-01T03:09:25.010Z,23.45
2023-04-01T03:10:25.044Z,23.45
2023-04-01T03:11:25.114Z,23.45
2023-04-01T03:12:25.159Z,23.45
2023-04-01T03:13:25.214Z,23.45
2023-04-01T03:14:25.310Z,23.45
2023-04-01T03:15:25.360Z,23.44
2023-04-01T03:16:25.417Z,23.45
2023-04-01T03:17:25.546Z,23.44
2023-04-01T03:18:25.519Z,23.44
2023-04-01T03:19:25.566Z,23.44
2023-04-01T03:20:25.589Z,23.44
2023-04-01T03:21:25.670Z,23.44
2023-04-01T03:22:25.755Z,23.44
2023-04-01T03:23:25.752Z,23.44
2023-04-01T03:24:25.825Z,23.44
2023-04-01T03:25:25.885Z,23.44
2023-04-01T03:26:25.957Z,23.43
2023-04-01T03:27:25.972Z,23.44
2023-04-01T03:28:26.051Z,23.43
2023-04-01T03:29:26.125Z,23.44
2023-04-01T03:30:26.207Z,23.43
2023-04-01T03:31:26.260Z,23.43
2023-04-01T03:32:26.306Z,23.43
2023-04-01T03:33:26.346Z,23.43
2023-04-01T03:34:26.401Z,23.43
2023-04-01T03:35:26.426Z,23.43
2023-04-01T03:36:26.617Z,23.43
2023-04-01T03:37:26.512Z,23.42
2023-04-01T03:38:26.568Z,23.42
2023-04-01T03:39:26.640Z,23.42
2023-04-01T03:40:26.699Z,23.42
2023-04-01T03:41:26.760Z,23.42
2023-04-01T03:42:26.874Z,23.42
2023-04-01T03:43:26.872Z,23.42
2023-04-01T03:44:26.942Z,23.42
2023-04-01T03:45:26.984Z,23.42
2023-04-01T03:46:27.053Z,23.41
2023-04-01T03:47:27.144Z,23.42
2023-04-01T03:48:27.187Z,23.42
2023-04-01T03:49:27.218Z,23.41
2023-04-01T03:50:27.281Z,23.42
2023-04-01T03:51:27.328Z,23.41
2023-04-01T03:52:27.345Z,23.42
2023-04-01T03:53:27.396Z,23.41
2023-04-01T03:54:27.492Z,23.41
2023-04-01T03:55:27.492Z,23.41
2023-04-01T03:56:27.578Z,23.41
2023-04-01T03:57:27.682Z,23.41
2023-04-01T03:58:27.698Z,23.40
2023-04-01T03:59:27.726Z,23.41
2023-04-01T04:00:27.773Z,23.40
2023-04-01T04:01:27.841Z,23.41
2023-04-01T04:02:28.000Z,23.40
2023-04-01T04:03:28.081Z,23.41
2023-04-01T04:04:28.077Z,23.40
2023-04-01T04:05:28.097Z,23.40
2023-04-01T04:06:28.148Z,23.40
2023-04-01T04:07:28.176Z,23.40
2023-04-01T04:08:28.195Z,23.40
2023-04-01T04:09:28.278Z,23.40
2023-04-01T04:10:28.338Z,23.40
2023-04-01T04:11:28.397Z,23.39
2023-04-01T04:12:28.468Z,23.39
2023-04-01T04:13:28.474Z,23.39
2023-04-01T04:14:28.564Z,23.40
2023-04-01T04:15:28.628Z,23.39
2023-04-01T04:16:28.739Z,23.39
2023-04-01T04:17:28.801Z,23.39
2023-04-01T04:18:28.749Z,23.39
2023-04-01T04:19:28.857Z,23.38
2023-04-01T04:20:28.857Z,23.38
2023-04-01T04:21:28.928Z,23.39
2023-04-01T04:22:28.969Z,23.39
2023-04-01T04:23:29.046Z,23.39
2023-04-01T04:24:29.120Z,23.39
2023-04-01T04:25:29.157Z,23.38
2023-04-01T04:26:29.220Z,23.39
2023-04-01T04:27:29.275Z,23.38
2023-04-01T04:28:29.325Z,23.38
2023-04-01T04:29:29.391Z,23.39
2023-04-01T04:30:29.406Z,23.38
2023-04-01T04:31:29.646Z,23.38
2023-04-01T04:32:30.149Z,23.38
2023-04-01T04:33:29.584Z,23.38
2023-04-01T04:34:29.689Z,23.38
2023-04-01T04:35:29.764Z,23.37
2023-04-01T04:36:29.783Z,23.37
2023-04-01T04:37:29.827Z,23.37
2023-04-01T04:38:29.867Z,23.37
2023-04-01T04:39:29.966Z,23.38
2023-04-01T04:40:30.025Z,23.37
2023-04-01T04:41:30.030Z,23.37
2023-04-01T04:42:30.619Z,23.37
2023-04-01T04:43:30.202Z,23.37
2023-04-01T04:44:30.258Z,23.37
2023-04-01T04:45:30.275Z,23.37
2023-04-01T04:46:30.349Z,23.37
2023-04-01T04:47:30.396Z,23.37
2023-04-01T04:48:30.443Z,23.36
2023-04-01T04:49:30.504Z,23.36
2023-04-01T04:50:30.565Z,23.36
2023-04-01T04:51:30.610Z,23.37
2023-04-01T04:52:30.674Z,23.36
2023-04-01T04:53:30.748Z,23.36
2023-04-01T04:54:30.783Z,23.37
2023-04-01T04:55:31.137Z,23.36
2023-04-01T04:56:30.902Z,23.36
2023-04-01T04:57:31.044Z,23.36
2023-04-01T04:58:31.020Z,23.35
2023-04-01T04:59:31.068Z,23.35
2023-04-01T05:00:31.149Z,23.35
2023-04-01T05:01:31.318Z,23.35
2023-04-01T05:02:31.311Z,23.35
2023-04-01T05:03:31.514Z,23.35
2023-04-01T05:04:31.359Z,23.35
2023-04-01T05:05:31.654Z,23.36
2023-04-01T05:06:31.487Z,23.36
2023-04-01T05:07:31.517Z,23.35
2023-04-01T05:08:31.592Z,23.35
2023-04-01T05:09:31.664Z,23.35
2023-04-01T05:10:31.768Z,23.35
2023-04-01T05:11:31.770Z,23.35
2023-04-01T05:12:31.777Z,23.35
2023-04-01T05:13:31.946Z,23.35
2023-04-01T05:14:31.887Z,23.35
2023-04-01T05:15:32.170Z,23.36
2023-04-01T05:16:32.053Z,23.35
2023-04-01T05:17:32.156Z,23.35
2023-04-01T05:18:32.116Z,23.36
2023-04-01T05:19:32.178Z,23.35
2023-04-01T05:20:32.249Z,23.35
2023-04-01T05:21:32.307Z,23.35
2023-04-01T05:22:32.356Z,23.35
2023-04-01T05:23:32.403Z,23.35
2023-04-01T05:24:32.468Z,23.35
2023-04-01T05:25:32.739Z,23.35
2023-04-01T05:26:32.644Z,23.35
2023-04-01T05:27:32.694Z,23.35
2023-04-01T05:28:32.757Z,23.35
2023-04-01T05:29:32.817Z,23.35
2023-04-01T05:30:32.884Z,23.35
2023-04-01T05:31:33.613Z,23.35
2023-04-01T05:32:33.002Z,23.36
2023-04-01T05:33:33.039Z,23.35
2023-04-01T05:34:33.096Z,23.36
2023-04-01T05:35:33.407Z,23.36
2023-04-01T05:36:33.231Z,23.36
2023-04-01T05:37:33.269Z,23.36
2023-04-01T05:38:33.327Z,23.36
2023-04-01T05:39:33.394Z,23.36
2023-04-01T05:40:33.454Z,23.37
2023-04-01T05:41:33.522Z,23.37
2023-04-01T05:42:34.219Z,23.37
2023-04-01T05:43:33.635Z,23.37
2023-04-01T05:44:33.635Z,23.37
2023-04-01T05:45:33.892Z,23.37
2023-04-01T05:46:33.779Z,23.38
2023-04-01T05:47:33.825Z,23.38
2023-04-01T05:48:33.871Z,23.38
2023-04-01T05:49:33.924Z,23.39
2023-04-01T05:50:33.970Z,23.39
2023-04-01T05:51:34.038Z,23.40
2023-04-01T05:52:34.109Z,23.40
2023-04-01T05:53:34.161Z,23.40
2023-04-01T05:54:34.211Z,23.41
2023-04-01T05:55:34.442Z,23.41
2023-04-01T05:56:34.315Z,23.41
2023-04-01T05:57:34.443Z,23.41
2023-04-01T05:58:34.446Z,23.42
2023-04-01T05:59:34.491Z,23.42
2023-04-01T06:00:34.611Z,23.43
2023-04-01T06:01:34.621Z,23.43
2023-04-01T06:02:34.697Z,23.44
2023-04-01T06:03:34.813Z,23.45
2023-04-01T06:04:34.770Z,23.45
2023-04-01T06:05:34.998Z,23.46
2023-04-01T06:06:34.869Z,23.46
2023-04-01T06:07:34.967Z,23.46
2023-04-01T06:08:34.974Z,23.47
2023-04-01T06:09:35.025Z,23.47
2023-04-01T06:10:35.029Z,23.49
2023-04-01T06:11:35.112Z,23.49
2023-04-01T06:12:35.153Z,23.50
2023-04-01T06:13:35.213Z,23.51
2023-04-01T06:14:35.270Z,23.52
2023-04-01T06:15:35.416Z,23.54
2023-04-01T06:16:35.404Z,23.57
2023-04-01T06:17:35.410Z,23.59
2023-04-01T06:18:35.381Z,23.62
2023-04-01T06:19:35.403Z,23.65
2023-04-01T06:20:35.471Z,23.68
2023-04-01T06:21:35.547Z,23.70
2023-04-01T06:22:35.543Z,23.70
2023-04-01T06:23:35.562Z,23.72
2023-04-01T06:24:35.612Z,23.72
2023-04-01T06:25:35.827Z,23.73
2023-04-01T06:26:35.664Z,23.74
2023-04-01T06:27:35.673Z,23.74
2023-04-01T06:28:35.689Z,23.74
2023-04-01T06:29:35.796Z,23.74
2023-04-01T06:30:35.740Z,23.74
2023-04-01T06:31:35.845Z,23.75
2023-04-01T06:32:35.867Z,23.76
2023-04-01T06:33:35.855Z,23.77
2023-04-01T06:34:35.921Z,23.78
2023-04-01T06:35:36.309Z,23.79
2023-04-01T06:36:36.075Z,23.80
2023-04-01T06:37:36.024Z,23.79
2023-04-01T06:38:35.994Z,23.79
2023-04-01T06:39:36.052Z,23.80
2023-04-01T06:40:36.073Z,23.80
2023-04-01T06:41:36.086Z,23.81
2023-04-01T06:42:36.087Z,23.81
2023-04-01T06:43:36.174Z,23.81
2023-04-01T06:44:36.145Z,23.82
2023-04-01T06:45:36.401Z,23.83
2023-04-01T06:46:36.268Z,23.84
2023-04-01T06:47:36.314Z,23.85
2023-04-01T06:48:36.325Z,23.89
2023-04-01T06:49:36.319Z,23.92
2023-04-01T06:50:36.319Z,23.94
2023-04-01T06:51:36.330Z,23.96
2023-04-01T06:52:36.423Z,23.99
2023-04-01T06:53:36.443Z,24.03
2023-04-01T06:54:36.419Z,24.04
2023-04-01T06:55:36.463Z,24.08
2023-04-01T06:56:36.468Z,24.11
2023-04-01T06:57:36.434Z,24.15
2023-04-01T06:58:36.442Z,24.20
2023-04-01T06:59:36.456Z,24.22
2023-04-01T07:00:36.447Z,24.24
2023-04-01T07:01:36.479Z,24.28
2023-04-01T07:02:36.527Z,24.30
2023-04-01T07:03:36.447Z,24.29
2023-04-01T07:04:36.510Z,24.29
2023-04-01T07:05:36.477Z,24.30
2023-04-01T07:06:36.435Z,24.28
2023-04-01T07:07:36.507Z,24.28
2023-04-01T07:08:36.454Z,24.28
2023-04-01T07:09:36.573Z,24.29
2023-04-01T07:10:36.460Z,24.30
2023-04-01T07:11:36.468Z,24.31
2023-04-01T07:12:36.572Z,24.31
2023-04-01T07:13:36.480Z,24.31
2023-04-01T07:14:36.497Z,24.31
2023-04-01T07:15:36.519Z,24.31
2023-04-01T07:16:36.602Z,24.32
2023-04-01T07:17:36.526Z,24.32
2023-04-01T07:18:36.545Z,24.35
2023-04-01T07:19:36.488Z,24.36
2023-04-01T07:20:36.511Z,24.39
2023-04-01T07:21:36.461Z,24.42
2023-04-01T07:22:36.509Z,24.43
2023-04-01T07:23:36.522Z,24.45
2023-04-01T07:24:36.449Z,24.45
2023-04-01T07:25:36.537Z,24.45
2023-04-01T07:26:36.477Z,24.45
2023-04-01T07:27:36.498Z,24.47
2023-04-01T07:28:36.562Z,24.52
2023-04-01T07:29:36.566Z,24.56
2023-04-01T07:30:36.601Z,24.58
2023-04-01T07:31:36.675Z,24.58
2023-04-01T07:32:36.755Z,24.62
2023-04-01T07:33:36.777Z,24.60
2023-04-01T07:34:36.895Z,24.57
2023-04-01T07:35:36.894Z,24.55
2023-04-01T07:36:36.937Z,24.53
2023-04-01T07:37:36.981Z,24.53
2023-04-01T07:38:37.068Z,24.53
2023-04-01T07:39:37.037Z,24.52
2023-04-01T07:40:37.043Z,24.55
2023-04-01T07:41:37.085Z,24.60
2023-04-01T07:42:37.097Z,24.63
2023-04-01T07:43:37.166Z,24.64
2023-04-01T07:44:37.200Z,24.65
2023-04-01T07:45:37.319Z,24.65
2023-04-01T07:46:37.358Z,24.64
2023-04-01T07:47:37.459Z,24.64
2023-04-01T07:48:37.432Z,24.65
2023-04-01T07:49:37.520Z,24.64
2023-04-01T07:50:41.044Z,24.63
2023-04-01T07:51:37.564Z,24.62
2023-04-01T07:52:37.644Z,24.62
2023-04-01T07:53:37.582Z,24.60
2023-04-01T07:54:37.555Z,24.60
2023-04-01T07:55:37.552Z,24.60
2023-04-01T07:56:37.573Z,24.59
2023-04-01T07:57:37.572Z,24.58
2023-04-01T07:58:37.561Z,24.57
2023-04-01T07:59:37.598Z,24.57
2023-04-01T08:00:37.630Z,24.57
2023-04-01T08:01:37.520Z,24.61
2023-04-01T08:02:37.516Z,24.63
2023-04-01T08:03:37.662Z,24.65
2023-04-01T08:04:37.579Z,24.67
2023-04-01T08:05:37.458Z,24.69
2023-04-01T08:06:37.453Z,24.69
2023-04-01T08:07:37.491Z,24.70
2023-04-01T08:08:37.573Z,24.73
2023-04-01T08:09:37.482Z,24.73
2023-04-01T08:10:37.468Z,24.75
2023-04-01T08:11:37.473Z,24.80
2023-04-01T08:12:37.420Z,24.81
2023-04-01T08:13:37.410Z,24.80
2023-04-01T08:14:37.397Z,24.81
2023-04-01T08:15:37.385Z,24.87
2023-04-01T08:16:37.585Z,24.93
2023-04-01T08:17:37.438Z,24.94
2023-04-01T08:18:37.414Z,25.01
2023-04-01T08:19:37.340Z,25.05
2023-04-01T08:20:37.346Z,25.07
2023-04-01T08:21:37.341Z,25.09
2023-04-01T08:22:37.304Z,25.11
2023-04-01T08:23:37.339Z,25.13
2023-04-01T08:24:46.971Z,25.16
2023-04-01T08:25:38.347Z,25.17
2023-04-01T08:26:37.325Z,25.19
2023-04-01T08:27:37.311Z,25.22
2023-04-01T08:28:37.296Z,25.24
2023-04-01T08:29:37.357Z,25.28
2023-04-01T08:30:37.256Z,25.29
2023-04-01T08:31:37.354Z,25.32
2023-04-01T08:32:37.304Z,25.34
2023-04-01T08:33:37.241Z,25.35
2023-04-01T08:34:37.238Z,25.38
2023-04-01T08:35:38.758Z,25.40
2023-04-01T08:36:37.354Z,25.42
2023-04-01T08:37:37.251Z,25.43
2023-04-01T08:38:37.201Z,25.44
2023-04-01T08:39:37.208Z,25.44
2023-04-01T08:40:37.183Z,25.45
2023-04-01T08:41:37.196Z,25.46
2023-04-01T08:42:37.186Z,25.47
2023-04-01T08:43:37.293Z,25.48
2023-04-01T08:44:37.176Z,25.48
2023-04-01T08:45:37.277Z,25.50
2023-04-01T08:46:37.209Z,25.50
2023-04-01T08:47:37.219Z,25.51
2023-04-01T08:48:37.174Z,25.52
2023-04-01T08:49:37.163Z,25.54
2023-04-01T08:50:37.184Z,25.55
2023-04-01T08:51:37.227Z,25.56
2023-04-01T08:52:37.260Z,25.57
2023-04-01T08:53:37.211Z,25.58
2023-04-01T08:54:37.287Z,25.59
2023-04-01T08:55:37.286Z,25.60
2023-04-01T08:56:37.377Z,25.62
2023-04-01T08:57:37.458Z,25.64
2023-04-01T08:58:37.437Z,25.64
2023-04-01T08:59:37.542Z,25.65
2023-04-01T09:00:37.618Z,25.66
2023-04-01T09:01:37.718Z,25.67
2023-04-01T09:02:37.855Z,25.68
2023-04-01T09:03:37.958Z,25.68
2023-04-01T09:04:38.019Z,25.70
2023-04-01T09:05:37.897Z,25.72
2023-04-01T09:06:37.977Z,25.73
2023-04-01T09:07:38.042Z,25.74
2023-04-01T09:08:38.080Z,25.74
2023-04-01T09:09:38.093Z,25.77
2023-04-01T09:10:38.189Z,25.76
2023-04-01T09:11:38.185Z,25.78
2023-04-01T09:12:38.323Z,25.79
2023-04-01T09:13:38.241Z,25.80
2023-04-01T09:14:38.335Z,25.79
2023-04-01T09:15:38.393Z,25.80
2023-04-01T09:16:38.404Z,25.80
2023-04-01T09:17:38.449Z,25.81
2023-04-01T09:18:38.493Z,25.82
2023-04-01T09:19:38.552Z,25.83
2023-04-01T09:20:38.602Z,25.85
2023-04-01T09:21:38.583Z,25.85
2023-04-01T09:22:38.649Z,25.87
2023-04-01T09:23:38.695Z,25.87
2023-04-01T09:24:38.723Z,25.88
2023-04-01T09:25:38.806Z,25.88
2023-04-01T09:26:38.819Z,25.89
2023-04-01T09:27:38.845Z,25.89
2023-04-01T09:28:38.866Z,25.89
2023-04-01T09:29:38.887Z,25.89
2023-04-01T09:30:38.959Z,25.89
2023-04-01T09:31:39.016Z,25.89
2023-04-01T09:32:39.006Z,25.89
2023-04-01T09:33:39.012Z,25.88
2023-04-01T09:34:39.047Z,25.85
2023-04-01T09:35:39.168Z,25.82
2023-04-01T09:36:39.145Z,25.81
2023-04-01T09:37:39.277Z,25.80
2023-04-01T09:38:39.225Z,25.84
2023-04-01T09:39:39.306Z,25.83
2023-04-01T09:40:39.283Z,25.82
2023-04-01T09:41:39.353Z,25.81
2023-04-01T09:42:39.425Z,25.82
2023-04-01T09:43:39.845Z,25.83
2023-04-01T09:44:40.452Z,25.84
2023-04-01T09:45:39.500Z,25.85
2023-04-01T09:46:39.574Z,25.85
2023-04-01T09:47:39.655Z,25.86
2023-04-01T09:48:39.632Z,25.88
2023-04-01T09:49:39.669Z,25.92
2023-04-01T09:50:39.697Z,25.95
2023-04-01T09:51:39.696Z,25.95
2023-04-01T09:52:39.796Z,25.97
2023-04-01T09:53:39.820Z,25.99
2023-04-01T09:54:39.793Z,25.99
2023-04-01T09:55:39.834Z,26.00
2023-04-01T09:56:39.837Z,26.01
2023-04-01T09:57:39.913Z,26.03
2023-04-01T09:58:43.563Z,26.03
2023-04-01T09:59:39.862Z,26.04
2023-04-01T10:00:39.874Z,26.06
2023-04-01T10:01:39.939Z,26.05
2023-04-01T10:02:39.843Z,26.05
2023-04-01T10:03:39.870Z,26.06
2023-04-01T10:04:39.838Z,26.06
2023-04-01T10:05:39.882Z,26.06
2023-04-01T10:06:39.809Z,26.06
2023-04-01T10:07:39.784Z,26.05
2023-04-01T10:08:39.837Z,26.05
2023-04-01T10:09:39.830Z,26.06
2023-04-01T10:10:39.780Z,26.07
2023-04-01T10:11:39.771Z,26.09
2023-04-01T10:12:39.781Z,26.11
2023-04-01T10:13:39.753Z,26.11
2023-04-01T10:14:39.728Z,26.13
2023-04-01T10:15:39.761Z,26.14
2023-04-01T10:16:39.842Z,26.15
2023-04-01T10:17:47.789Z,26.15
2023-04-01T10:18:39.714Z,26.14
2023-04-01T10:19:39.731Z,26.13
2023-04-01T10:20:39.716Z,26.15
2023-04-01T10:21:39.724Z,26.15
2023-04-01T10:22:39.703Z,26.16
2023-04-01T10:23:39.706Z,26.16
2023-04-01T10:24:39.714Z,26.16
2023-04-01T10:25:39.643Z,26.16
2023-04-01T10:26:39.673Z,26.16
2023-04-01T10:27:39.664Z,26.15
2023-04-01T10:28:39.709Z,26.16
2023-04-01T10:29:39.686Z,26.17
2023-04-01T10:30:39.692Z,26.19
2023-04-01T10:31:39.682Z,26.19
2023-04-01T10:32:40.677Z,26.18
2023-04-01T10:33:39.702Z,26.19
2023-04-01T10:34:39.704Z,26.19
2023-04-01T10:35:39.843Z,26.18
2023-04-01T10:36:39.734Z,26.19
2023-04-01T10:37:39.791Z,26.21
2023-04-01T10:38:39.743Z,26.21
2023-04-01T10:39:39.751Z,26.23
2023-04-01T10:40:39.759Z,26.24
2023-04-01T10:41:39.772Z,26.24
2023-04-01T10:42:39.776Z,26.25
2023-04-01T10:43:39.783Z,26.24
2023-04-01T10:44:39.774Z,26.23
2023-04-01T10:45:39.818Z,26.25
2023-04-01T10:46:39.819Z,26.25
2023-04-01T10:47:39.847Z,26.25
2023-04-01T10:48:39.732Z,26.24
2023-04-01T10:49:39.776Z,26.26
2023-04-01T10:50:39.791Z,26.25
2023-04-01T10:51:39.780Z,26.26
2023-04-01T10:52:39.745Z,26.27
2023-04-01T10:53:39.886Z,26.27
2023-04-01T10:54:39.803Z,26.27
2023-04-01T10:55:39.816Z,26.28
2023-04-01T10:56:39.795Z,26.27
2023-04-01T10:57:39.830Z,26.27
2023-04-01T10:58:39.839Z,26.27
2023-04-01T10:59:39.841Z,26.26
2023-04-01T11:00:39.856Z,26.26
2023-04-01T11:01:39.901Z,26.26
2023-04-01T11:02:40.013Z,26.27
2023-04-01T11:03:39.978Z,26.27
2023-04-01T11:04:39.812Z,26.26
2023-04-01T11:05:39.811Z,26.25
2023-04-01T11:06:39.831Z,26.26
2023-04-01T11:07:39.834Z,26.26
2023-04-01T11:08:39.903Z,26.26
2023-04-01T11:09:39.798Z,26.25
2023-04-01T11:10:39.851Z,26.23
2023-04-01T11:11:39.882Z,26.24
2023-04-01T11:12:39.862Z,26.24
2023-04-01T11:13:39.879Z,26.26
2023-04-01T11:14:39.844Z,26.25
2023-04-01T11:15:39.877Z,26.26
2023-04-01T11:16:40.058Z,26.26
2023-04-01T11:17:39.898Z,26.26
2023-04-01T11:18:39.905Z,26.26
2023-04-01T11:19:39.882Z,26.27
2023-04-01T11:20:39.897Z,26.28
2023-04-01T11:21:39.939Z,26.28
2023-04-01T11:22:39.923Z,26.31
2023-04-01T11:23:39.945Z,26.32
2023-04-01T11:24:39.907Z,26.31
2023-04-01T11:25:39.948Z,26.31
2023-04-01T11:26:39.979Z,26.32
2023-04-01T11:27:40.087Z,26.33
2023-04-01T11:28:39.899Z,26.33
2023-04-01T11:29:44.360Z,26.34
2023-04-01T11:30:40.917Z,26.33
2023-04-01T11:31:39.956Z,26.34
2023-04-01T11:32:39.868Z,26.34
2023-04-01T11:33:39.888Z,26.36
2023-04-01T11:34:39.882Z,26.37
2023-04-01T11:35:39.915Z,26.38
2023-04-01T11:36:39.916Z,26.39
2023-04-01T11:37:39.895Z,26.41
2023-04-01T11:38:39.851Z,26.42
2023-04-01T11:39:39.808Z,26.41
2023-04-01T11:40:39.950Z,26.42
2023-04-01T11:41:39.824Z,26.42
2023-04-01T11:42:39.829Z,26.43
2023-04-01T11:43:39.800Z,26.44
2023-04-01T11:44:39.849Z,26.44
2023-04-01T11:45:39.850Z,26.44
2023-04-01T11:46:39.944Z,26.44
2023-04-01T11:47:39.795Z,26.44
2023-04-01T11:48:39.820Z,26.45
2023-04-01T11:49:39.770Z,26.48
2023-04-01T11:50:39.849Z,26.50
2023-04-01T11:51:39.789Z,26.50
2023-04-01T11:52:39.774Z,26.49
2023-04-01T11:53:39.757Z,26.50
2023-04-01T11:54:39.762Z,26.49
2023-04-01T11:55:39.708Z,26.50
2023-04-01T11:56:39.756Z,26.50
2023-04-01T11:57:39.728Z,26.50
2023-04-01T11:58:39.743Z,26.50
2023-04-01T11:59:39.670Z,26.49
2023-04-01T12:00:39.685Z,26.49
2023-04-01T12:01:39.687Z,26.48
2023-04-01T12:02:39.769Z,26.48
2023-04-01T12:03:39.861Z,26.47
2023-04-01T12:04:39.807Z,26.47
2023-04-01T12:05:39.729Z,26.47
2023-04-01T12:06:39.731Z,26.47
2023-04-01T12:07:39.737Z,26.47
2023-04-01T12:08:39.758Z,26.46
2023-04-01T12:09:39.747Z,26.46
2023-04-01T12:10:39.784Z,26.46
2023-04-01T12:11:39.757Z,26.46
2023-04-01T12:12:43.289Z,26.46
2023-04-01T12:13:40.838Z,26.46
2023-04-01T12:14:39.735Z,26.46
2023-04-01T12:15:39.705Z,26.46
2023-04-01T12:16:39.740Z,26.47
2023-04-01T12:17:39.774Z,26.47
2023-04-01T12:18:39.708Z,26.46
2023-04-01T12:19:39.715Z,26.47
2023-04-01T12:20:39.727Z,26.47
2023-04-01T12:21:39.712Z,26.48
2023-04-01T12:22:39.723Z,26.47
2023-04-01T12:23:39.810Z,26.47
2023-04-01T12:24:39.747Z,26.45
2023-04-01T12:25:39.741Z,26.46
2023-04-01T12:26:39.723Z,26.47
2023-04-01T12:27:39.652Z,26.46
2023-04-01T12:28:39.684Z,26.47
2023-04-01T12:29:39.650Z,26.46
2023-04-01T12:30:39.648Z,26.46
2023-04-01T12:31:39.676Z,26.45
2023-04-01T12:32:39.733Z,26.45
2023-04-01T12:33:39.742Z,26.45
2023-04-01T12:34:39.610Z,26.45
2023-04-01T12:35:39.690Z,26.45
2023-04-01T12:36:39.612Z,26.45
2023-04-01T12:37:39.594Z,26.45
2023-04-01T12:38:39.660Z,26.45
2023-04-01T12:39:39.613Z,26.45
2023-04-01T12:40:39.595Z,26.44
2023-04-01T12:41:39.537Z,26.42
2023-04-01T12:42:39.563Z,26.41
2023-04-01T12:43:39.571Z,26.41
2023-04-01T12:44:39.546Z,26.41
2023-04-01T12:45:39.600Z,26.40
2023-04-01T12:46:39.517Z,26.39
2023-04-01T12:47:39.659Z,26.38
2023-04-01T12:48:39.518Z,26.38
2023-04-01T12:49:39.532Z,26.38
2023-04-01T12:50:39.512Z,26.37
2023-04-01T12:51:39.473Z,26.36
2023-04-01T12:52:39.480Z,26.36